createdAt,value
2023-01-22T00:00:34.766Z,1010.23
2023-01-22T00:01:40.577Z,1010.20
2023-01-22T00:02:35.023Z,1010.25
2023-01-22T00:03:35.323Z,1010.16
2023-01-22T00:04:35.089Z,1010.21
2023-01-22T00:05:35.483Z,1010.17
2023-01-22T00:06:34.233Z,1010.18
2023-01-22T00:07:34.789Z,1010.16
2023-01-22T00:08:34.510Z,1010.01
2023-01-22T00:09:34.221Z,1010.05
2023-01-22T00:10:36.411Z,1010.08
2023-01-22T00:11:32.652Z,1010.12
2023-01-22T00:12:32.918Z,1010.03
2023-01-22T00:13:34.997Z,1010.08
2023-01-22T00:14:34.136Z,1010.04
2023-01-22T00:15:34.137Z,1010.04
2023-01-22T00:16:33.965Z,1010.07
2023-01-22T00:17:36.040Z,1010.08
2023-01-22T00:18:32.419Z,1010.02
2023-01-22T00:19:37.586Z,1010.06
2023-01-22T00:20:34.713Z,1010.14
2023-01-22T00:21:35.166Z,1010.10
2023-01-22T00:22:34.018Z,1010.13
2023-01-22T00:23:34.840Z,1010.10
2023-01-22T00:24:34.958Z,1010.09
2023-01-22T00:25:34.058Z,1010.13
2023-01-22T00:26:33.235Z,1010.09
2023-01-22T00:27:34.118Z,1010.08
2023-01-22T00:28:34.017Z,1010.05
2023-01-22T00:29:34.454Z,1010.03
2023-01-22T00:30:34.714Z,1010.07
2023-01-22T00:31:33.238Z,1010.04
2023-01-22T00:32:33.656Z,1010.08
2023-01-22T00:33:32.660Z,1010.06
2023-01-22T00:34:36.138Z,1010.04
2023-01-22T00:35:33.951Z,1010.07
2023-01-22T00:36:33.703Z,1010.03
2023-01-22T00:37:32.878Z,1010.08
2023-01-22T00:38:32.945Z,1010.03
2023-01-22T00:39:33.244Z,1010.07
2023-01-22T00:40:32.555Z,1010.00
2023-01-22T00:41:34.424Z,1010.09
2023-01-22T00:42:32.474Z,1010.09
2023-01-22T00:43:32.240Z,1010.08
2023-01-22T00:44:32.332Z,1010.02
2023-01-22T00:45:32.782Z,1010.05
2023-01-22T00:46:35.174Z,1010.04
2023-01-22T00:47:33.596Z,1010.08
2023-01-22T00:48:31.854Z,1010.05
2023-01-22T00:49:31.812Z,1010.02
2023-01-22T00:50:31.792Z,1010.06
2023-01-22T00:51:31.787Z,1009.99
2023-01-22T00:52:31.811Z,1010.02
2023-01-22T00:53:31.790Z,1010.03
2023-01-22T00:54:31.783Z,1010.05
2023-01-22T00:55:31.774Z,1010.05
2023-01-22T00:56:31.790Z,1010.03
2023-01-22T00:57:31.747Z,1010.01
2023-01-22T00:58:31.750Z,1010.03
2023-01-22T00:59:31.784Z,1010.02
2023-01-22T01:00:31.815Z,1010.06
2023-01-22T01:01:31.734Z,1010.03
2023-01-22T01:02:31.745Z,1010.00
2023-01-22T01:03:31.860Z,1010.06
2023-01-22T01:04:31.717Z,1009.99
2023-01-22T01:05:31.731Z,1010.01
2023-01-22T01:06:31.704Z,1009.97
2023-01-22T01:07:31.690Z,1009.98
2023-01-22T01:08:31.720Z,1010.00
2023-01-22T01:09:31.682Z,1009.97
2023-01-22T01:10:31.692Z,1009.99
2023-01-22T01:11:31.704Z,1010.04
2023-01-22T01:12:31.766Z,1010.02
2023-01-22T01:13:31.669Z,1010.06
2023-01-22T01:14:31.671Z,1009.97
2023-01-22T01:15:31.653Z,1009.93
2023-01-22T01:16:31.769Z,1009.99
2023-01-22T01:17:31.674Z,1009.97
2023-01-22T01:18:31.623Z,1009.97
2023-01-22T01:19:31.699Z,1009.98
2023-01-22T01:20:31.628Z,1010.02
2023-01-22T01:21:31.620Z,1010.08
2023-01-22T01:22:31.599Z,1009.98
2023-01-22T01:23:31.609Z,1010.00
2023-01-22T01:24:31.587Z,1010.06
2023-01-22T01:25:31.595Z,1010.06
2023-01-22T01:26:31.606Z,1010.07
2023-01-22T01:27:31.588Z,1010.02
2023-01-22T01:28:31.669Z,1010.03
2023-01-22T01:29:31.594Z,1010.02
2023-01-22T01:30:31.612Z,1010.00
2023-01-22T01:31:31.628Z,1010.03
2023-01-22T01:32:31.569Z,1010.01
2023-01-22T01:33:31.541Z,1010.02
2023-01-22T01:34:31.535Z,1010.00
2023-01-22T01:35:31.552Z,1010.07
2023-01-22T01:36:47.751Z,1009.97
2023-01-22T01:37:33.525Z,1010.08
2023-01-22T01:38:31.551Z,1009.99
2023-01-22T01:39:31.509Z,1010.04
2023-01-22T01:40:31.496Z,1010.06
2023-01-22T01:41:31.528Z,1010.08
2023-01-22T01:42:31.500Z,1010.06
2023-01-22T01:43:31.499Z,1010.01
2023-01-22T01:44:31.595Z,1010.05
2023-01-22T01:45:31.474Z,1010.04
2023-01-22T01:46:31.528Z,1010.06
2023-01-22T01:47:31.503Z,1009.98
2023-01-22T01:48:31.475Z,1010.02
2023-01-22T01:49:31.458Z,1009.99
2023-01-22T01:50:31.483Z,1010.00
2023-01-22T01:51:31.450Z,1009.99
2023-01-22T01:52:31.438Z,1009.99
2023-01-22T01:53:31.478Z,1009.93
2023-01-22T01:54:31.441Z,1009.97
2023-01-22T01:55:31.431Z,1009.91
2023-01-22T01:56:31.419Z,1010.00
2023-01-22T01:57:31.402Z,1010.00
2023-01-22T01:58:31.428Z,1009.90
2023-01-22T01:59:31.411Z,1009.96
2023-01-22T02:00:37.379Z,1009.97
2023-01-22T02:01:32.483Z,1010.02
2023-01-22T02:02:31.376Z,1009.98
2023-01-22T02:03:31.369Z,1009.93
2023-01-22T02:04:31.389Z,1009.97
2023-01-22T02:05:31.359Z,1009.96
2023-01-22T02:06:31.348Z,1009.98
2023-01-22T02:07:31.356Z,1010.01
2023-01-22T02:08:31.329Z,1009.98
2023-01-22T02:09:31.363Z,1009.97
2023-01-22T02:10:31.339Z,1009.93
2023-01-22T02:11:31.327Z,1009.99
2023-01-22T02:12:31.302Z,1009.93
2023-01-22T02:13:31.309Z,1009.90
2023-01-22T02:14:31.290Z,1009.94
2023-01-22T02:15:31.292Z,1009.88
2023-01-22T02:16:31.378Z,1009.91
2023-01-22T02:17:37.268Z,1009.82
2023-01-22T02:18:32.380Z,1009.82
2023-01-22T02:19:31.290Z,1009.89
2023-01-22T02:20:31.274Z,1009.89
2023-01-22T02:21:31.279Z,1009.88
2023-01-22T02:22:31.337Z,1009.83
2023-01-22T02:23:31.250Z,1009.91
2023-01-22T02:24:31.245Z,1009.87
2023-01-22T02:25:31.267Z,1009.89
2023-01-22T02:26:31.226Z,1009.92
2023-01-22T02:27:31.210Z,1009.88
2023-01-22T02:28:31.244Z,1009.90
2023-01-22T02:29:31.207Z,1009.88
2023-01-22T02:30:31.258Z,1009.90
2023-01-22T02:31:31.260Z,1009.91
2023-01-22T02:32:31.177Z,1009.85
2023-01-22T02:33:31.209Z,1009.91
2023-01-22T02:34:31.298Z,1009.91
2023-01-22T02:35:31.192Z,1009.88
2023-01-22T02:36:31.157Z,1009.90
2023-01-22T02:37:31.172Z,1009.87
2023-01-22T02:38:31.150Z,1009.82
2023-01-22T02:39:31.158Z,1009.88
2023-01-22T02:40:31.142Z,1009.89
2023-01-22T02:41:31.128Z,1009.91
2023-01-22T02:42:31.127Z,1009.89
2023-01-22T02:43:31.131Z,1009.94
2023-01-22T02:44:31.111Z,1009.89
2023-01-22T02:45:31.200Z,1009.90
2023-01-22T02:46:31.112Z,1009.85
2023-01-22T02:47:31.096Z,1009.88
2023-01-22T02:48:31.096Z,1009.88
2023-01-22T02:49:31.111Z,1009.93
2023-01-22T02:50:31.176Z,1009.91
2023-01-22T02:51:31.067Z,1009.86
2023-01-22T02:52:31.076Z,1009.83
2023-01-22T02:53:31.967Z,1009.91
2023-01-22T02:54:31.315Z,1009.80
2023-01-22T02:55:31.061Z,1009.84
2023-01-22T02:56:31.036Z,1009.82
2023-01-22T02:57:31.054Z,1009.78
2023-01-22T02:58:31.058Z,1009.75
2023-01-22T02:59:31.062Z,1009.70
2023-01-22T03:00:31.020Z,1009.68
2023-01-22T03:01:31.079Z,1009.70
2023-01-22T03:02:31.041Z,1009.71
2023-01-22T03:03:31.004Z,1009.75
2023-01-22T03:04:31.009Z,1009.75
2023-01-22T03:05:31.004Z,1009.79
2023-01-22T03:06:31.085Z,1009.79
2023-01-22T03:07:31.002Z,1009.81
2023-01-22T03:08:30.969Z,1009.79
2023-01-22T03:09:30.968Z,1009.77
2023-01-22T03:10:30.986Z,1009.81
2023-01-22T03:11:30.941Z,1009.83
2023-01-22T03:12:30.952Z,1009.79
2023-01-22T03:13:30.964Z,1009.77
2023-01-22T03:14:30.941Z,1009.77
2023-01-22T03:15:30.938Z,1009.79
2023-01-22T03:16:30.979Z,1009.76
2023-01-22T03:17:30.923Z,1009.78
2023-01-22T03:18:30.906Z,1009.85
2023-01-22T03:19:30.947Z,1009.78
2023-01-22T03:20:30.903Z,1009.85
2023-01-22T03:21:30.908Z,1009.82
2023-01-22T03:22:30.998Z,1009.84
2023-01-22T03:23:30.885Z,1009.85
2023-01-22T03:24:30.873Z,1009.86
2023-01-22T03:25:30.884Z,1009.84
2023-01-22T03:26:30.874Z,1009.81
2023-01-22T03:27:30.861Z,1009.80
2023-01-22T03:28:30.861Z,1009.80
2023-01-22T03:29:30.831Z,1009.84
2023-01-22T03:30:30.834Z,1009.76
2023-01-22T03:31:31.023Z,1009.73
2023-01-22T03:32:30.825Z,1009.72
2023-01-22T03:33:30.844Z,1009.77
2023-01-22T03:34:30.824Z,1009.76
2023-01-22T03:35:30.813Z,1009.77
2023-01-22T03:36:30.831Z,1009.82
2023-01-22T03:37:30.817Z,1009.78
2023-01-22T03:38:30.879Z,1009.77
2023-01-22T03:39:30.791Z,1009.73
2023-01-22T03:40:30.794Z,1009.81
2023-01-22T03:41:30.783Z,1009.78
2023-01-22T03:42:30.759Z,1009.71
2023-01-22T03:43:30.767Z,1009.72
2023-01-22T03:44:30.751Z,1009.77
2023-01-22T03:45:30.749Z,1009.78
2023-01-22T03:46:30.766Z,1009.75
2023-01-22T03:47:30.728Z,1009.76
2023-01-22T03:48:30.729Z,1009.74
2023-01-22T03:49:30.742Z,1009.75
2023-01-22T03:50:30.716Z,1009.79
2023-01-22T03:51:30.718Z,1009.78
2023-01-22T03:52:30.724Z,1009.80
2023-01-22T03:53:31.691Z,1009.80
2023-01-22T03:54:30.790Z,1009.85
2023-01-22T03:55:30.705Z,1009.88
2023-01-22T03:56:30.693Z,1009.86
2023-01-22T03:57:30.676Z,1009.81
2023-01-22T03:58:30.686Z,1009.85
2023-01-22T03:59:30.692Z,1009.84
2023-01-22T04:00:30.693Z,1009.86
2023-01-22T04:01:30.786Z,1009.81
2023-01-22T04:02:30.747Z,1009.85
2023-01-22T04:03:31.645Z,1009.91
2023-01-22T04:04:30.655Z,1009.93
2023-01-22T04:05:30.637Z,1009.92
2023-01-22T04:06:30.647Z,1009.87
2023-01-22T04:07:30.634Z,1009.87
2023-01-22T04:08:30.625Z,1009.91
2023-01-22T04:09:30.613Z,1009.92
2023-01-22T04:10:30.719Z,1009.99
2023-01-22T04:11:30.614Z,1009.88
2023-01-22T04:12:30.584Z,1009.90
2023-01-22T04:13:30.605Z,1009.99
2023-01-22T04:14:30.583Z,1009.94
2023-01-22T04:15:30.580Z,1009.96
2023-01-22T04:16:30.623Z,1010.01
2023-01-22T04:17:30.562Z,1010.03
2023-01-22T04:18:30.571Z,1010.03
2023-01-22T04:19:30.583Z,1010.05
2023-01-22T04:20:30.553Z,1010.02
2023-01-22T04:21:30.561Z,1010.06
2023-01-22T04:22:30.565Z,1010.04
2023-01-22T04:23:30.519Z,1010.03
2023-01-22T04:24:30.516Z,1010.06
2023-01-22T04:25:30.541Z,1010.04
2023-01-22T04:26:30.601Z,1010.01
2023-01-22T04:27:30.499Z,1010.02
2023-01-22T04:28:30.518Z,1010.04
2023-01-22T04:29:30.520Z,1010.03
2023-01-22T04:30:30.613Z,1010.05
2023-01-22T04:31:30.577Z,1010.02
2023-01-22T04:32:30.488Z,1010.01
2023-01-22T04:33:30.467Z,1010.06
2023-01-22T04:34:30.465Z,1010.05
2023-01-22T04:35:30.457Z,1010.02
2023-01-22T04:36:30.446Z,1010.05
2023-01-22T04:37:30.464Z,1010.08
2023-01-22T04:38:30.459Z,1010.04
2023-01-22T04:39:30.433Z,1010.09
2023-01-22T04:40:30.440Z,1010.06
2023-01-22T04:41:30.405Z,1010.01
2023-01-22T04:42:31.515Z,1010.04
2023-01-22T04:43:30.425Z,1010.03
2023-01-22T04:44:30.413Z,1010.03
2023-01-22T04:45:30.413Z,1010.00
2023-01-22T04:46:30.454Z,1009.98
2023-01-22T04:47:30.429Z,1010.01
2023-01-22T04:48:30.395Z,1009.98
2023-01-22T04:49:30.399Z,1009.99
2023-01-22T04:50:30.374Z,1009.97
2023-01-22T04:51:30.392Z,1009.97
2023-01-22T04:52:30.374Z,1009.99
2023-01-22T04:53:30.371Z,1009.89
2023-01-22T04:54:30.380Z,1009.96
2023-01-22T04:55:30.337Z,1009.92
2023-01-22T04:56:30.352Z,1009.95
2023-01-22T04:57:30.356Z,1009.93
2023-01-22T04:58:30.430Z,1009.89
2023-01-22T04:59:30.324Z,1009.90
2023-01-22T05:00:31.333Z,1009.96
2023-01-22T05:01:30.398Z,1009.95
2023-01-22T05:02:30.336Z,1009.98
2023-01-22T05:03:30.317Z,1009.91
2023-01-22T05:04:30.293Z,1009.93
2023-01-22T05:05:30.297Z,1009.84
2023-01-22T05:06:30.299Z,1009.84
2023-01-22T05:07:30.302Z,1009.85
2023-01-22T05:08:30.284Z,1009.87
2023-01-22T05:09:30.281Z,1009.84
2023-01-22T05:10:30.264Z,1009.84
2023-01-22T05:11:30.261Z,1009.81
2023-01-22T05:12:30.262Z,1009.84
2023-01-22T05:13:30.256Z,1009.85
2023-01-22T05:14:30.318Z,1009.85
2023-01-22T05:15:30.271Z,1009.86
2023-01-22T05:16:30.232Z,1009.79
2023-01-22T05:17:30.233Z,1009.85
2023-01-22T05:18:30.242Z,1009.82
2023-01-22T05:19:30.225Z,1009.83
2023-01-22T05:20:30.211Z,1009.81
2023-01-22T05:21:30.215Z,1009.82
2023-01-22T05:22:30.214Z,1009.86
2023-01-22T05:23:30.202Z,1009.90
2023-01-22T05:24:30.198Z,1009.91
2023-01-22T05:25:30.180Z,1009.96
2023-01-22T05:26:30.169Z,1009.97
2023-01-22T05:27:30.166Z,1009.93
2023-01-22T05:28:30.152Z,1009.97
2023-01-22T05:29:30.174Z,1010.00
2023-01-22T05:30:30.299Z,1009.95
2023-01-22T05:31:30.198Z,1009.94
2023-01-22T05:32:30.129Z,1009.97
2023-01-22T05:33:30.156Z,1009.99
2023-01-22T05:34:30.134Z,1010.03
2023-01-22T05:35:30.118Z,1010.00
2023-01-22T05:36:30.117Z,1010.02
2023-01-22T05:37:30.097Z,1010.03
2023-01-22T05:38:30.096Z,1010.09
2023-01-22T05:39:30.117Z,1010.08
2023-01-22T05:40:30.090Z,1010.11
2023-01-22T05:41:30.102Z,1010.13
2023-01-22T05:42:30.079Z,1010.19
2023-01-22T05:43:30.067Z,1010.15
2023-01-22T05:44:31.326Z,1010.19
2023-01-22T05:45:30.066Z,1010.20
2023-01-22T05:46:30.251Z,1010.28
2023-01-22T05:47:30.068Z,1010.19
2023-01-22T05:48:30.087Z,1010.26
2023-01-22T05:49:30.030Z,1010.29
2023-01-22T05:50:30.030Z,1010.37
2023-01-22T05:51:32.236Z,1010.32
2023-01-22T05:52:31.026Z,1010.28
2023-01-22T05:53:30.018Z,1010.31
2023-01-22T05:54:30.011Z,1010.20
2023-01-22T05:55:30.005Z,1010.29
2023-01-22T05:56:29.993Z,1010.24
2023-01-22T05:57:30.009Z,1010.16
2023-01-22T05:58:29.983Z,1010.22
2023-01-22T05:59:29.991Z,1010.17
2023-01-22T06:00:29.979Z,1010.18
2023-01-22T06:01:29.963Z,1010.14
2023-01-22T06:02:30.097Z,1010.17
2023-01-22T06:03:29.972Z,1010.12
2023-01-22T06:04:29.951Z,1010.13
2023-01-22T06:05:29.991Z,1010.17
2023-01-22T06:06:29.942Z,1010.14
2023-01-22T06:07:29.939Z,1010.11
2023-01-22T06:08:29.931Z,1010.04
2023-01-22T06:09:29.931Z,1010.13
2023-01-22T06:10:29.918Z,1010.22
2023-01-22T06:11:29.915Z,1010.17
2023-01-22T06:12:29.920Z,1010.25
2023-01-22T06:13:29.922Z,1010.19
2023-01-22T06:14:29.891Z,1010.24
2023-01-22T06:15:29.873Z,1010.24
2023-01-22T06:16:29.882Z,1010.19
2023-01-22T06:17:29.881Z,1010.22
2023-01-22T06:18:29.972Z,1010.21
2023-01-22T06:19:29.916Z,1010.27
2023-01-22T06:20:29.848Z,1010.26
2023-01-22T06:21:29.860Z,1010.25
2023-01-22T06:22:29.856Z,1010.30
2023-01-22T06:23:29.837Z,1010.28
2023-01-22T06:24:29.842Z,1010.21
2023-01-22T06:25:29.839Z,1010.26
2023-01-22T06:26:29.843Z,1010.24
2023-01-22T06:27:29.839Z,1010.28
2023-01-22T06:28:29.821Z,1010.33
2023-01-22T06:29:29.807Z,1010.34
2023-01-22T06:30:29.820Z,1010.33
2023-01-22T06:31:29.899Z,1010.33
2023-01-22T06:32:29.785Z,1010.36
2023-01-22T06:33:29.775Z,1010.32
2023-01-22T06:34:29.901Z,1010.35
2023-01-22T06:35:29.753Z,1010.39
2023-01-22T06:36:29.756Z,1010.36
2023-01-22T06:37:29.763Z,1010.35
2023-01-22T06:38:29.743Z,1010.31
2023-01-22T06:39:29.745Z,1010.36
2023-01-22T06:40:29.751Z,1010.33
2023-01-22T06:41:29.758Z,1010.31
2023-01-22T06:42:29.733Z,1010.36
2023-01-22T06:43:29.729Z,1010.39
2023-01-22T06:44:29.726Z,1010.37
2023-01-22T06:45:29.711Z,1010.38
2023-01-22T06:46:29.802Z,1010.38
2023-01-22T06:47:29.701Z,1010.41
2023-01-22T06:48:29.697Z,1010.33
2023-01-22T06:49:29.702Z,1010.38
2023-01-22T06:50:35.440Z,1010.42
2023-01-22T06:51:30.774Z,1010.44
2023-01-22T06:52:29.679Z,1010.42
2023-01-22T06:53:29.658Z,1010.43
2023-01-22T06:54:29.653Z,1010.49
2023-01-22T06:55:29.659Z,1010.51
2023-01-22T06:56:29.639Z,1010.45
2023-01-22T06:57:29.636Z,1010.46
2023-01-22T06:58:29.647Z,1010.51
2023-01-22T06:59:29.627Z,1010.53
2023-01-22T07:00:29.620Z,1010.44
2023-01-22T07:01:29.705Z,1010.47
2023-01-22T07:02:29.600Z,1010.51
2023-01-22T07:03:29.673Z,1010.52
2023-01-22T07:04:29.598Z,1010.50
2023-01-22T07:05:29.577Z,1010.49
2023-01-22T07:06:29.626Z,1010.52
2023-01-22T07:07:30.617Z,1010.60
2023-01-22T07:08:29.888Z,1010.61
2023-01-22T07:09:29.586Z,1010.60
2023-01-22T07:10:29.589Z,1010.69
2023-01-22T07:11:29.543Z,1010.67
2023-01-22T07:12:29.560Z,1010.72
2023-01-22T07:13:29.563Z,1010.76
2023-01-22T07:14:36.758Z,1010.78
2023-01-22T07:15:31.521Z,1010.76
2023-01-22T07:16:29.580Z,1010.79
2023-01-22T07:17:29.537Z,1010.87
2023-01-22T07:18:29.604Z,1010.86
2023-01-22T07:19:29.518Z,1010.85
2023-01-22T07:20:29.531Z,1010.87
2023-01-22T07:21:29.499Z,1010.84
2023-01-22T07:22:29.509Z,1010.82
2023-01-22T07:23:29.571Z,1010.74
2023-01-22T07:24:29.478Z,1010.84
2023-01-22T07:25:29.494Z,1010.82
2023-01-22T07:26:29.470Z,1010.86
2023-01-22T07:27:29.487Z,1010.85
2023-01-22T07:28:29.473Z,1010.82
2023-01-22T07:29:29.456Z,1010.91
2023-01-22T07:30:29.569Z,1010.91
2023-01-22T07:31:29.488Z,1010.91
2023-01-22T07:32:29.424Z,1010.91
2023-01-22T07:33:29.443Z,1010.90
2023-01-22T07:34:29.488Z,1010.93
2023-01-22T07:35:29.417Z,1010.92
2023-01-22T07:36:29.410Z,1010.93
2023-01-22T07:37:29.439Z,1010.94
2023-01-22T07:38:29.403Z,1010.92
2023-01-22T07:39:29.511Z,1010.97
2023-01-22T07:40:29.409Z,1010.97
2023-01-22T07:41:29.386Z,1011.01
2023-01-22T07:42:29.419Z,1011.03
2023-01-22T07:43:29.932Z,1010.94
2023-01-22T07:44:29.359Z,1010.97
2023-01-22T07:45:29.388Z,1011.01
2023-01-22T07:46:29.382Z,1010.96
2023-01-22T07:47:29.358Z,1011.00
2023-01-22T07:48:29.370Z,1011.01
2023-01-22T07:49:29.338Z,1010.99
2023-01-22T07:50:29.381Z,1010.95
2023-01-22T07:51:29.366Z,1010.95
2023-01-22T07:52:29.334Z,1010.99
2023-01-22T07:53:29.331Z,1011.02
2023-01-22T07:54:29.328Z,1010.98
2023-01-22T07:55:29.395Z,1011.02
2023-01-22T07:56:29.308Z,1011.02
2023-01-22T07:57:29.309Z,1011.02
2023-01-22T07:58:29.298Z,1011.08
2023-01-22T07:59:29.290Z,1011.10
2023-01-22T08:00:29.302Z,1011.05
2023-01-22T08:01:29.264Z,1011.08
2023-01-22T08:02:29.287Z,1011.13
2023-01-22T08:03:29.295Z,1011.13
2023-01-22T08:04:29.250Z,1011.23
2023-01-22T08:05:29.271Z,1011.18
2023-01-22T08:06:29.235Z,1011.14
2023-01-22T08:07:29.241Z,1011.19
2023-01-22T08:08:29.228Z,1011.17
2023-01-22T08:09:29.942Z,1011.18
2023-01-22T08:10:29.230Z,1011.16
2023-01-22T08:11:29.301Z,1011.18
2023-01-22T08:12:29.213Z,1011.21
2023-01-22T08:13:29.233Z,1011.17
2023-01-22T08:14:29.921Z,1011.22
2023-01-22T08:15:29.191Z,1011.14
2023-01-22T08:16:29.268Z,1011.14
2023-01-22T08:17:29.184Z,1011.14
2023-01-22T08:18:29.187Z,1011.20
2023-01-22T08:19:29.170Z,1011.15
2023-01-22T08:20:29.166Z,1011.14
2023-01-22T08:21:29.155Z,1011.18
2023-01-22T08:22:29.142Z,1011.16
2023-01-22T08:23:29.143Z,1011.16
2023-01-22T08:24:29.152Z,1011.11
2023-01-22T08:25:29.155Z,1011.18
2023-01-22T08:26:29.123Z,1011.14
2023-01-22T08:27:29.192Z,1011.20
2023-01-22T08:28:30.148Z,1011.20
2023-01-22T08:29:29.107Z,1011.23
2023-01-22T08:30:29.115Z,1011.21
2023-01-22T08:31:29.292Z,1011.18
2023-01-22T08:32:29.155Z,1011.23
2023-01-22T08:33:29.127Z,1011.26
2023-01-22T08:34:29.070Z,1011.30
2023-01-22T08:35:29.091Z,1011.30
2023-01-22T08:36:29.070Z,1011.30
2023-01-22T08:37:29.063Z,1011.31
2023-01-22T08:38:29.053Z,1011.31
2023-01-22T08:39:29.080Z,1011.29
2023-01-22T08:40:29.047Z,1011.31
2023-01-22T08:41:29.047Z,1011.35
2023-01-22T08:42:29.021Z,1011.35
2023-01-22T08:43:29.140Z,1011.38
2023-01-22T08:44:29.055Z,1011.41
2023-01-22T08:45:29.172Z,1011.37
2023-01-22T08:46:29.013Z,1011.39
2023-01-22T08:47:29.004Z,1011.42
2023-01-22T08:48:29.130Z,1011.44
2023-01-22T08:49:28.994Z,1011.45
2023-01-22T08:50:29.031Z,1011.41
2023-01-22T08:51:28.999Z,1011.45
2023-01-22T08:52:28.961Z,1011.46
2023-01-22T08:53:28.959Z,1011.48
2023-01-22T08:54:28.952Z,1011.41
2023-01-22T08:55:28.970Z,1011.42
2023-01-22T08:56:28.958Z,1011.35
2023-01-22T08:57:28.959Z,1011.38
2023-01-22T08:58:28.933Z,1011.34
2023-01-22T08:59:31.085Z,1011.40
2023-01-22T09:00:29.951Z,1011.45
2023-01-22T09:01:28.909Z,1011.46
2023-01-22T09:02:28.947Z,1011.48
2023-01-22T09:03:28.896Z,1011.42
2023-01-22T09:04:28.905Z,1011.41
2023-01-22T09:05:28.886Z,1011.40
2023-01-22T09:06:28.889Z,1011.42
2023-01-22T09:07:28.879Z,1011.42
2023-01-22T09:08:28.875Z,1011.52
2023-01-22T09:09:28.889Z,1011.45
2023-01-22T09:10:28.865Z,1011.51
2023-01-22T09:11:28.857Z,1011.47
2023-01-22T09:12:28.867Z,1011.56
2023-01-22T09:13:28.850Z,1011.59
2023-01-22T09:14:28.875Z,1011.59
2023-01-22T09:15:28.909Z,1011.55
2023-01-22T09:16:29.859Z,1011.56
2023-01-22T09:17:28.815Z,1011.58
2023-01-22T09:18:29.852Z,1011.56
2023-01-22T09:19:28.836Z,1011.61
2023-01-22T09:20:28.816Z,1011.59
2023-01-22T09:21:28.805Z,1011.61
2023-01-22T09:22:28.784Z,1011.64
2023-01-22T09:23:28.771Z,1011.68
2023-01-22T09:24:28.806Z,1011.68
2023-01-22T09:25:28.783Z,1011.68
2023-01-22T09:26:28.775Z,1011.75
2023-01-22T09:27:28.783Z,1011.68
2023-01-22T09:28:28.759Z,1011.71
2023-01-22T09:29:28.747Z,1011.71
2023-01-22T09:30:28.769Z,1011.72
2023-01-22T09:31:28.913Z,1011.73
2023-01-22T09:32:28.743Z,1011.75
2023-01-22T09:33:28.762Z,1011.74
2023-01-22T09:34:28.727Z,1011.71
2023-01-22T09:35:28.724Z,1011.75
2023-01-22T09:36:28.718Z,1011.68
2023-01-22T09:37:28.703Z,1011.65
2023-01-22T09:38:28.691Z,1011.74
2023-01-22T09:39:28.702Z,1011.71
2023-01-22T09:40:28.701Z,1011.66
2023-01-22T09:41:28.690Z,1011.66
2023-01-22T09:42:28.688Z,1011.68
2023-01-22T09:43:28.696Z,1011.68
2023-01-22T09:44:28.664Z,1011.68
2023-01-22T09:45:28.668Z,1011.79
2023-01-22T09:46:28.671Z,1011.76
2023-01-22T09:47:28.789Z,1011.77
2023-01-22T09:48:28.632Z,1011.78
2023-01-22T09:49:28.672Z,1011.72
2023-01-22T09:50:28.651Z,1011.72
2023-01-22T09:51:28.670Z,1011.68
2023-01-22T09:52:28.665Z,1011.76
2023-01-22T09:53:28.624Z,1011.81
2023-01-22T09:54:28.608Z,1011.76
2023-01-22T09:55:28.615Z,1011.78
2023-01-22T09:56:28.662Z,1011.83
2023-01-22T09:57:32.402Z,1011.82
2023-01-22T09:58:29.639Z,1011.81
2023-01-22T09:59:28.572Z,1011.85
2023-01-22T10:00:28.575Z,1011.82
2023-01-22T10:01:28.591Z,1011.84
2023-01-22T10:02:28.610Z,1011.83
2023-01-22T10:03:28.663Z,1011.81
2023-01-22T10:04:28.555Z,1011.84
2023-01-22T10:05:28.545Z,1011.88
2023-01-22T10:06:28.541Z,1011.80
2023-01-22T10:07:28.550Z,1011.78
2023-01-22T10:08:28.644Z,1011.76
2023-01-22T10:09:28.515Z,1011.85
2023-01-22T10:10:28.535Z,1011.80
2023-01-22T10:11:28.504Z,1011.77
2023-01-22T10:12:28.481Z,1011.82
2023-01-22T10:13:28.519Z,1011.73
2023-01-22T10:14:28.478Z,1011.70
2023-01-22T10:15:28.484Z,1011.73
2023-01-22T10:16:28.541Z,1011.74
2023-01-22T10:17:28.464Z,1011.70
2023-01-22T10:18:28.453Z,1011.67
2023-01-22T10:19:28.554Z,1011.70
2023-01-22T10:20:28.457Z,1011.73
2023-01-22T10:21:28.475Z,1011.72
2023-01-22T10:22:28.458Z,1011.73
2023-01-22T10:23:28.432Z,1011.75
2023-01-22T10:24:28.453Z,1011.68
2023-01-22T10:25:28.442Z,1011.63
2023-01-22T10:26:28.414Z,1011.73
2023-01-22T10:27:28.437Z,1011.72
2023-01-22T10:28:28.412Z,1011.73
2023-01-22T10:29:28.394Z,1011.70
2023-01-22T10:30:28.393Z,1011.66
2023-01-22T10:31:28.598Z,1011.68
2023-01-22T10:32:28.399Z,1011.70
2023-01-22T10:33:28.368Z,1011.72
2023-01-22T10:34:28.365Z,1011.77
2023-01-22T10:35:28.484Z,1011.78
2023-01-22T10:36:28.375Z,1011.72
2023-01-22T10:37:28.368Z,1011.77
2023-01-22T10:38:28.352Z,1011.72
2023-01-22T10:39:28.373Z,1011.75
2023-01-22T10:40:28.324Z,1011.74
2023-01-22T10:41:28.396Z,1011.74
2023-01-22T10:42:28.376Z,1011.79
2023-01-22T10:43:29.824Z,1011.75
2023-01-22T10:44:28.312Z,1011.76
2023-01-22T10:45:28.326Z,1011.74
2023-01-22T10:46:28.443Z,1011.76
2023-01-22T10:47:28.317Z,1011.76
2023-01-22T10:48:28.303Z,1011.78
2023-01-22T10:49:28.289Z,1011.77
2023-01-22T10:50:28.272Z,1011.81
2023-01-22T10:51:28.365Z,1011.81
2023-01-22T10:52:28.268Z,1011.79
2023-01-22T10:53:28.298Z,1011.74
2023-01-22T10:54:28.256Z,1011.69
2023-01-22T10:55:28.257Z,1011.62
2023-01-22T10:56:28.258Z,1011.70
2023-01-22T10:57:28.251Z,1011.68
2023-01-22T10:58:28.232Z,1011.66
2023-01-22T10:59:28.230Z,1011.70
2023-01-22T11:00:28.210Z,1011.64
2023-01-22T11:01:28.256Z,1011.74
2023-01-22T11:02:28.309Z,1011.73
2023-01-22T11:03:28.215Z,1011.76
2023-01-22T11:04:28.390Z,1011.70
2023-01-22T11:05:28.197Z,1011.71
2023-01-22T11:06:28.184Z,1011.74
2023-01-22T11:07:29.956Z,1011.69
2023-01-22T11:08:28.899Z,1011.73
2023-01-22T11:09:28.160Z,1011.78
2023-01-22T11:10:28.160Z,1011.79
2023-01-22T11:11:28.797Z,1011.82
2023-01-22T11:12:28.131Z,1011.81
2023-01-22T11:13:28.167Z,1011.77
2023-01-22T11:14:28.150Z,1011.76
2023-01-22T11:15:28.174Z,1011.74
2023-01-22T11:16:28.117Z,1011.74
2023-01-22T11:17:28.100Z,1011.70
2023-01-22T11:18:28.108Z,1011.72
2023-01-22T11:19:36.860Z,1011.69
2023-01-22T11:20:30.098Z,1011.70
2023-01-22T11:21:28.111Z,1011.72
2023-01-22T11:22:28.096Z,1011.73
2023-01-22T11:23:28.167Z,1011.69
2023-01-22T11:24:28.078Z,1011.71
2023-01-22T11:25:28.102Z,1011.68
2023-01-22T11:26:28.050Z,1011.73
2023-01-22T11:27:28.060Z,1011.74
2023-01-22T11:28:28.130Z,1011.76
2023-01-22T11:29:28.038Z,1011.71
2023-01-22T11:30:28.608Z,1011.80
2023-01-22T11:31:28.117Z,1011.76
2023-01-22T11:32:28.023Z,1011.73
2023-01-22T11:33:28.022Z,1011.74
2023-01-22T11:34:28.036Z,1011.75
2023-01-22T11:35:28.900Z,1011.74
2023-01-22T11:36:28.016Z,1011.66
2023-01-22T11:37:28.000Z,1011.68
2023-01-22T11:38:28.002Z,1011.67
2023-01-22T11:39:28.077Z,1011.69
2023-01-22T11:40:28.072Z,1011.69
2023-01-22T11:41:27.993Z,1011.67
2023-01-22T11:42:27.957Z,1011.68
2023-01-22T11:43:27.959Z,1011.71
2023-01-22T11:44:27.972Z,1011.68
2023-01-22T11:45:27.964Z,1011.73
2023-01-22T11:46:27.990Z,1011.74
2023-01-22T11:47:27.983Z,1011.74
2023-01-22T11:48:28.019Z,1011.70
2023-01-22T11:49:27.926Z,1011.69
2023-01-22T11:50:28.006Z,1011.67
2023-01-22T11:51:27.949Z,1011.76
2023-01-22T11:52:27.913Z,1011.74
2023-01-22T11:53:27.889Z,1011.76
2023-01-22T11:54:27.900Z,1011.73
2023-01-22T11:55:27.991Z,1011.74
2023-01-22T11:56:27.874Z,1011.73
2023-01-22T11:57:27.861Z,1011.72
2023-01-22T11:58:27.888Z,1011.74
2023-01-22T11:59:27.863Z,1011.69
2023-01-22T12:00:27.868Z,1011.70
2023-01-22T12:01:27.893Z,1011.73
2023-01-22T12:02:27.877Z,1011.77
2023-01-22T12:03:27.857Z,1011.76
2023-01-22T12:04:27.840Z,1011.70
2023-01-22T12:05:29.932Z,1011.73